Terminal Aerodrome Forecast
Issued by NWS Wilmington, NC

Home | Current Version | Previous Version | Text Only | Print | Product List | Glossary On
Versions: 1 2 3 4 5 6 7 8 9 10 11 12 13 14 15 16 17 18 19 20 21
000
FTUS42 KILM 301449 AAB
TAFILM
TAF AMD
KILM 301449Z 3015/0112 09011KT P6SM SCT008 OVC018
     FM301700 10012KT P6SM SCT015 OVC025
     FM010100 11006KT P6SM BKN015 OVC025
     FM010400 11006KT P6SM SCT004 BKN007 OVC012
     FM010900 15006KT P6SM BKN004 OVC007=

USA.gov is the U.S. government's official web portal to all federal, state and local government web resources and services.